Time;durP1;ratioP1;P1;durP2;ratioP2;P2;SDS_P1;SDS_P2;PMS_P1;PMS_P2;Temp;Humidity;BMP_temperature;BMP_pressure;BME280_temperature;BME280_humidity;BME280_pressure;Samples;Min_cycle;Max_cycle;Signal;HPM_P1;HPM_P2
2023/04/23 00:01:59;;;;;;;1.27;0.60;;;;;;;;;;5057245;28;20386;-57
2023/04/23 00:04:25;;;;;;;3.45;0.80;;;;;;;;;;5057490;28;20112;-57
2023/04/23 00:06:51;;;;;;;2.30;0.98;;;;;;;;;;5057470;28;20447;-58
2023/04/23 00:09:17;;;;;;;1.58;0.77;;;;;;;;;;5057160;28;20421;-58
2023/04/23 00:11:44;;;;;;;1.35;0.80;;;;;;;;;;5057137;28;20037;-55
2023/04/23 00:14:11;;;;;;;2.05;1.10;;;;;;;;;;5057355;28;20055;-56
2023/04/23 00:16:39;;;;;;;1.95;0.75;;;;;;;;;;5056948;28;20470;-57
2023/04/23 00:19:05;;;;;;;1.05;0.68;;;;;;;;;;5056835;28;20032;-56
2023/04/23 00:21:31;;;;;;;1.30;0.70;;;;;;;;;;5056790;28;20033;-56
2023/04/23 00:23:57;;;;;;;0.85;0.40;;;;;;;;;;5056833;28;20037;-54
2023/04/23 00:26:23;;;;;;;1.63;0.80;;;;;;;;;;5057154;28;20064;-56
2023/04/23 00:28:49;;;;;;;1.77;0.65;;;;;;;;;;5057280;28;20455;-56
2023/04/23 00:31:15;;;;;;;1.67;1.00;;;;;;;;;;5056596;28;20083;-57
2023/04/23 00:33:41;;;;;;;1.27;0.70;;;;;;;;;;5056880;28;20033;-56
2023/04/23 00:36:07;;;;;;;0.95;0.57;;;;;;;;;;5056650;28;20021;-56
2023/04/23 00:38:33;;;;;;;1.98;1.00;;;;;;;;;;5057115;28;20390;-56
2023/04/23 00:40:59;;;;;;;1.27;0.60;;;;;;;;;;5057162;28;20036;-56
2023/04/23 00:43:25;;;;;;;2.00;1.00;;;;;;;;;;5056619;28;20060;-56
2023/04/23 00:45:51;;;;;;;1.25;0.63;;;;;;;;;;5056989;28;20029;-56
2023/04/23 00:48:17;;;;;;;1.30;0.63;;;;;;;;;;5056389;28;20033;-54
2023/04/23 00:50:43;;;;;;;1.45;0.80;;;;;;;;;;5056308;28;20033;-56
2023/04/23 00:53:09;;;;;;;1.23;0.70;;;;;;;;;;5056318;28;20082;-56
2023/04/23 00:55:35;;;;;;;1.50;0.70;;;;;;;;;;5055303;28;20028;-57
2023/04/23 00:58:01;;;;;;;1.15;0.70;;;;;;;;;;5056755;28;20431;-56
2023/04/23 01:00:27;;;;;;;1.42;0.73;;;;;;;;;;5055983;28;20033;-55
2023/04/23 01:02:53;;;;;;;1.35;0.80;;;;;;;;;;5056085;28;20102;-57
2023/04/23 01:05:19;;;;;;;2.22;0.70;;;;;;;;;;5056596;28;20029;-56
2023/04/23 01:07:46;;;;;;;0.70;0.35;;;;;;;;;;5056215;28;20029;-56
2023/04/23 01:10:12;;;;;;;1.10;0.63;;;;;;;;;;5055978;28;20032;-57
2023/04/23 01:12:38;;;;;;;1.38;0.50;;;;;;;;;;5055180;28;20064;-56
2023/04/23 01:15:04;;;;;;;1.10;0.60;;;;;;;;;;5055533;28;20437;-56
2023/04/23 01:17:31;;;;;;;1.63;0.73;;;;;;;;;;5055772;28;20439;-57
2023/04/23 01:19:57;;;;;;;1.48;0.90;;;;;;;;;;5055729;28;20396;-56
2023/04/23 01:22:23;;;;;;;0.82;0.30;;;;;;;;;;5055946;28;20499;-56
2023/04/23 01:24:50;;;;;;;0.68;0.35;;;;;;;;;;5055644;28;20467;-56
2023/04/23 01:27:18;;;;;;;1.23;0.50;;;;;;;;;;5056011;28;20025;-55
2023/04/23 01:29:45;;;;;;;0.88;0.40;;;;;;;;;;5055461;28;20033;-57
2023/04/23 01:32:11;;;;;;;1.05;0.50;;;;;;;;;;5055484;28;20067;-57
2023/04/23 01:34:37;;;;;;;0.82;0.45;;;;;;;;;;5055771;28;20033;-54
2023/04/23 01:37:03;;;;;;;1.30;0.63;;;;;;;;;;5055839;28;20100;-57
2023/04/23 01:39:30;;;;;;;2.00;0.75;;;;;;;;;;5055387;28;20412;-54
2023/04/23 01:41:56;;;;;;;1.08;0.55;;;;;;;;;;5055512;28;20371;-56
2023/04/23 01:44:22;;;;;;;0.70;0.40;;;;;;;;;;5055711;28;20060;-57
2023/04/23 01:46:48;;;;;;;1.23;0.70;;;;;;;;;;5055381;28;20029;-54
2023/04/23 01:49:14;;;;;;;1.38;0.68;;;;;;;;;;5055210;28;20327;-56
2023/04/23 01:51:40;;;;;;;1.13;0.60;;;;;;;;;;5055249;28;20414;-56
2023/04/23 01:54:06;;;;;;;1.35;0.80;;;;;;;;;;5055674;28;20055;-56
2023/04/23 01:56:34;;;;;;;1.30;0.70;;;;;;;;;;5055036;28;20053;-57
2023/04/23 01:59:00;;;;;;;1.90;0.77;;;;;;;;;;5055240;28;20025;-57
2023/04/23 02:01:40;;;;;;;1.15;0.70;;;;;;;;;;5055567;28;20040;-56
2023/04/23 02:04:06;;;;;;;1.10;0.65;;;;;;;;;;5055327;28;20025;-57
2023/04/23 02:06:32;;;;;;;1.33;0.98;;;;;;;;;;5054898;28;20021;-55
2023/04/23 02:08:58;;;;;;;0.85;0.47;;;;;;;;;;5054889;28;20025;-55
2023/04/23 02:11:24;;;;;;;1.60;0.88;;;;;;;;;;5054844;28;20166;-57
2023/04/23 02:13:50;;;;;;;1.13;0.70;;;;;;;;;;5055026;28;20341;-57
2023/04/23 02:16:16;;;;;;;0.90;0.43;;;;;;;;;;5054971;28;20037;-57
2023/04/23 02:18:42;;;;;;;0.75;0.40;;;;;;;;;;5054672;28;20035;-56
2023/04/23 02:21:08;;;;;;;0.85;0.40;;;;;;;;;;5054284;28;20033;-56
2023/04/23 02:23:34;;;;;;;0.85;0.40;;;;;;;;;;5053765;28;20108;-55
2023/04/23 02:26:00;;;;;;;1.15;0.70;;;;;;;;;;5055082;28;20431;-56
2023/04/23 02:28:26;;;;;;;1.10;0.50;;;;;;;;;;5054540;28;20071;-57
2023/04/23 02:30:52;;;;;;;1.25;0.40;;;;;;;;;;5055298;28;20032;-56
2023/04/23 02:33:18;;;;;;;0.88;0.40;;;;;;;;;;5054883;28;20029;-57
2023/04/23 02:35:45;;;;;;;0.95;0.50;;;;;;;;;;5054536;28;20052;-54
2023/04/23 02:38:11;;;;;;;1.08;0.50;;;;;;;;;;5054223;28;20135;-56
2023/04/23 02:40:36;;;;;;;1.00;0.50;;;;;;;;;;5054757;28;20518;-55
2023/04/23 02:43:02;;;;;;;0.88;0.50;;;;;;;;;;5055049;28;20037;-57
2023/04/23 02:45:28;;;;;;;1.13;0.63;;;;;;;;;;5054407;28;20048;-57
2023/04/23 02:47:54;;;;;;;2.20;0.60;;;;;;;;;;5054385;28;20445;-56
2023/04/23 02:50:20;;;;;;;1.05;0.40;;;;;;;;;;5054097;28;20044;-56
2023/04/23 02:52:47;;;;;;;1.17;0.57;;;;;;;;;;5054623;28;20052;-57
2023/04/23 02:55:13;;;;;;;1.15;0.50;;;;;;;;;;5053898;28;20037;-56
2023/04/23 02:57:39;;;;;;;1.05;0.45;;;;;;;;;;5053653;28;20111;-56
2023/04/23 03:00:06;;;;;;;1.23;0.63;;;;;;;;;;5053980;28;20029;-57
2023/04/23 03:02:32;;;;;;;1.33;0.95;;;;;;;;;;5053685;28;20166;-57
2023/04/23 03:04:58;;;;;;;2.33;0.77;;;;;;;;;;5053876;28;20053;-56
2023/04/23 03:07:24;;;;;;;0.70;0.35;;;;;;;;;;5054143;28;20032;-56
2023/04/23 03:09:50;;;;;;;1.08;0.50;;;;;;;;;;5053824;28;20112;-57
2023/04/23 03:12:17;;;;;;;0.52;0.32;;;;;;;;;;5053722;28;20072;-57
2023/04/23 03:14:43;;;;;;;1.15;0.40;;;;;;;;;;5053719;28;20534;-57
2023/04/23 03:17:10;;;;;;;0.75;0.40;;;;;;;;;;5053707;28;20064;-56
2023/04/23 03:19:36;;;;;;;0.88;0.65;;;;;;;;;;5054081;28;20025;-56
2023/04/23 03:22:04;;;;;;;0.68;0.30;;;;;;;;;;5054261;28;20094;-57
2023/04/23 03:24:30;;;;;;;0.82;0.52;;;;;;;;;;5054276;28;20178;-57
2023/04/23 03:26:56;;;;;;;0.88;0.57;;;;;;;;;;5054043;28;20406;-56
2023/04/23 03:29:23;;;;;;;0.35;0.22;;;;;;;;;;5054038;28;20029;-57
2023/04/23 03:31:49;;;;;;;1.05;0.52;;;;;;;;;;5053553;28;20111;-56
2023/04/23 03:34:15;;;;;;;0.90;0.50;;;;;;;;;;5051904;28;20029;-56
2023/04/23 03:36:43;;;;;;;0.85;0.47;;;;;;;;;;5053891;28;20025;-58
2023/04/23 03:39:09;;;;;;;0.60;0.22;;;;;;;;;;5053495;28;20033;-58
2023/04/23 03:41:35;;;;;;;1.48;0.65;;;;;;;;;;5053494;28;20032;-58
2023/04/23 03:44:01;;;;;;;1.25;0.73;;;;;;;;;;5053327;28;20390;-57
2023/04/23 03:46:27;;;;;;;0.70;0.40;;;;;;;;;;5053840;28;20064;-57
2023/04/23 03:48:53;;;;;;;0.73;0.35;;;;;;;;;;5054043;28;20412;-57
2023/04/23 03:51:19;;;;;;;0.52;0.30;;;;;;;;;;5053487;28;20428;-58
2023/04/23 03:53:45;;;;;;;0.88;0.45;;;;;;;;;;5053456;28;20021;-57
2023/04/23 03:56:11;;;;;;;0.65;0.32;;;;;;;;;;5053944;28;20041;-57
2023/04/23 03:58:37;;;;;;;1.27;0.85;;;;;;;;;;5054166;28;20022;-57
2023/04/23 04:01:03;;;;;;;0.80;0.40;;;;;;;;;;5053352;28;20037;-57
2023/04/23 04:03:29;;;;;;;0.80;0.50;;;;;;;;;;5053367;28;20029;-57
2023/04/23 04:05:55;;;;;;;0.95;0.50;;;;;;;;;;5053686;28;20068;-58
2023/04/23 04:08:21;;;;;;;0.98;0.52;;;;;;;;;;5053274;28;20025;-57
2023/04/23 04:10:47;;;;;;;0.60;0.20;;;;;;;;;;5053309;28;20029;-57
2023/04/23 04:13:14;;;;;;;0.80;0.35;;;;;;;;;;5053313;28;20033;-58
2023/04/23 04:15:40;;;;;;;0.90;0.52;;;;;;;;;;5054034;28;20098;-56
2023/04/23 04:18:06;;;;;;;1.25;0.60;;;;;;;;;;5053207;28;20017;-57
2023/04/23 04:20:32;;;;;;;1.67;0.63;;;;;;;;;;5053798;28;20029;-57
2023/04/23 04:22:58;;;;;;;0.55;0.30;;;;;;;;;;5053186;28;20036;-56
2023/04/23 04:25:27;;;;;;;1.08;0.68;;;;;;;;;;5052958;28;20115;-57
2023/04/23 04:27:53;;;;;;;0.70;0.22;;;;;;;;;;5053049;28;20386;-57
2023/04/23 04:30:20;;;;;;;0.77;0.40;;;;;;;;;;5053110;28;20032;-57
2023/04/23 04:32:49;;;;;;;0.88;0.45;;;;;;;;;;5052974;28;20068;-57
2023/04/23 04:35:15;;;;;;;1.23;0.73;;;;;;;;;;5053706;28;20366;-57
2023/04/23 04:37:42;;;;;;;0.77;0.40;;;;;;;;;;5053053;28;20032;-57
2023/04/23 04:40:10;;;;;;;0.98;0.70;;;;;;;;;;5052963;28;20064;-55
2023/04/23 04:42:37;;;;;;;0.93;0.47;;;;;;;;;;5052899;28;20025;-57
2023/04/23 04:45:04;;;;;;;0.80;0.40;;;;;;;;;;5052904;28;20071;-56
2023/04/23 04:47:31;;;;;;;0.63;0.30;;;;;;;;;;5055185;28;20120;-57
2023/04/23 04:49:58;;;;;;;0.88;0.45;;;;;;;;;;5056436;28;20025;-57
2023/04/23 04:52:24;;;;;;;0.82;0.43;;;;;;;;;;5056654;28;20043;-57
2023/04/23 04:54:50;;;;;;;0.70;0.38;;;;;;;;;;5056704;28;20045;-57
2023/04/23 04:57:18;;;;;;;1.10;0.43;;;;;;;;;;5056942;28;20502;-57
2023/04/23 04:59:44;;;;;;;0.70;0.35;;;;;;;;;;5056247;28;20068;-57
2023/04/23 05:02:10;;;;;;;0.98;0.40;;;;;;;;;;5056162;28;20033;-57
2023/04/23 05:04:36;;;;;;;0.70;0.30;;;;;;;;;;5056502;28;20367;-56
2023/04/23 05:07:02;;;;;;;1.55;0.55;;;;;;;;;;5056459;28;20047;-57
2023/04/23 05:09:28;;;;;;;0.85;0.40;;;;;;;;;;5056120;28;20025;-58
2023/04/23 05:11:54;;;;;;;0.82;0.35;;;;;;;;;;5056026;28;20037;-57
2023/04/23 05:14:20;;;;;;;0.52;0.30;;;;;;;;;;5056573;28;20052;-58
2023/04/23 05:16:46;;;;;;;0.57;0.30;;;;;;;;;;5056348;28;20021;-58
2023/04/23 05:19:12;;;;;;;0.65;0.45;;;;;;;;;;5056465;28;20100;-58
2023/04/23 05:21:38;;;;;;;0.65;0.35;;;;;;;;;;5056196;28;20025;-57
2023/04/23 05:24:04;;;;;;;1.35;0.85;;;;;;;;;;5056351;28;20044;-57
2023/04/23 05:26:30;;;;;;;0.75;0.47;;;;;;;;;;5056399;28;20482;-57
2023/04/23 05:28:56;;;;;;;0.98;0.40;;;;;;;;;;5055684;28;20055;-58
2023/04/23 05:31:22;;;;;;;0.95;0.52;;;;;;;;;;5055750;28;20100;-57
2023/04/23 05:33:48;;;;;;;0.82;0.30;;;;;;;;;;5055697;28;20075;-56
2023/04/23 05:36:14;;;;;;;0.50;0.20;;;;;;;;;;5056183;28;20064;-58
2023/04/23 05:38:40;;;;;;;0.63;0.32;;;;;;;;;;5054313;28;20030;-58
2023/04/23 05:41:06;;;;;;;0.50;0.30;;;;;;;;;;5055888;28;20124;-57
2023/04/23 05:43:32;;;;;;;0.73;0.40;;;;;;;;;;5055448;28;20111;-57
2023/04/23 05:45:58;;;;;;;0.90;0.40;;;;;;;;;;5055421;28;20021;-57
2023/04/23 05:48:24;;;;;;;0.95;0.30;;;;;;;;;;5055403;28;20099;-58
2023/04/23 05:50:50;;;;;;;0.70;0.40;;;;;;;;;;5056082;28;20021;-57
2023/04/23 05:53:16;;;;;;;0.15;0.10;;;;;;;;;;5054942;28;20072;-57
2023/04/23 05:55:42;;;;;;;0.20;0.10;;;;;;;;;;5055484;28;20086;-59
2023/04/23 05:58:08;;;;;;;0.43;0.20;;;;;;;;;;5054849;28;20021;-57
2023/04/23 06:00:34;;;;;;;0.82;0.55;;;;;;;;;;5055344;28;20029;-57
2023/04/23 06:03:00;;;;;;;0.85;0.40;;;;;;;;;;5055023;28;20029;-57
2023/04/23 06:05:26;;;;;;;0.73;0.32;;;;;;;;;;5055820;28;20116;-57
2023/04/23 06:07:52;;;;;;;1.00;0.40;;;;;;;;;;5055527;28;20486;-57
2023/04/23 06:10:18;;;;;;;0.77;0.65;;;;;;;;;;5054920;28;20056;-54
2023/04/23 06:12:44;;;;;;;0.57;0.22;;;;;;;;;;5054869;28;20053;-58
2023/04/23 06:15:10;;;;;;;0.65;0.20;;;;;;;;;;5054386;28;20158;-56
2023/04/23 06:17:37;;;;;;;0.60;0.20;;;;;;;;;;5055507;28;20036;-57
2023/04/23 06:20:04;;;;;;;0.70;0.43;;;;;;;;;;5054967;28;20382;-57
2023/04/23 06:22:30;;;;;;;0.75;0.30;;;;;;;;;;5054674;28;20029;-58
2023/04/23 06:24:56;;;;;;;0.52;0.25;;;;;;;;;;5055470;28;20064;-57
2023/04/23 06:27:22;;;;;;;0.22;0.10;;;;;;;;;;5055227;28;20170;-58
2023/04/23 06:29:48;;;;;;;0.28;0.10;;;;;;;;;;5055309;28;20021;-56
2023/04/23 06:32:14;;;;;;;0.35;0.10;;;;;;;;;;5054540;28;20521;-57
2023/04/23 06:34:40;;;;;;;0.77;0.30;;;;;;;;;;5054454;28;20051;-58
2023/04/23 06:37:07;;;;;;;0.88;0.32;;;;;;;;;;5054448;28;20028;-58
2023/04/23 06:39:33;;;;;;;0.30;0.17;;;;;;;;;;5054542;28;20025;-58
2023/04/23 06:42:00;;;;;;;0.52;0.20;;;;;;;;;;5054278;28;20032;-58
2023/04/23 06:44:26;;;;;;;0.50;0.20;;;;;;;;;;5054139;28;20033;-57
2023/04/23 06:46:52;;;;;;;0.40;0.20;;;;;;;;;;5054731;28;20025;-57
2023/04/23 06:49:18;;;;;;;0.32;0.15;;;;;;;;;;5054492;28;20028;-57
2023/04/23 06:51:44;;;;;;;0.73;0.30;;;;;;;;;;5054157;28;20037;-58
2023/04/23 06:54:10;;;;;;;0.17;0.10;;;;;;;;;;5054185;28;20120;-57
2023/04/23 06:56:36;;;;;;;0.73;0.20;;;;;;;;;;5054547;28;20067;-57
2023/04/23 06:59:02;;;;;;;0.73;0.32;;;;;;;;;;5054477;28;20025;-56
2023/04/23 07:01:28;;;;;;;0.05;0.03;;;;;;;;;;5054088;28;20033;-56
2023/04/23 07:03:54;;;;;;;0.50;0.30;;;;;;;;;;5054022;28;20029;-56
2023/04/23 07:06:20;;;;;;;0.40;0.10;;;;;;;;;;5054122;28;20407;-56
2023/04/23 07:08:46;;;;;;;0.43;0.20;;;;;;;;;;5054538;28;20108;-56
2023/04/23 07:11:12;;;;;;;0.75;0.38;;;;;;;;;;5053524;28;20061;-56
2023/04/23 07:13:39;;;;;;;0.38;0.15;;;;;;;;;;5052653;28;20040;-56
2023/04/23 07:16:05;;;;;;;0.47;0.20;;;;;;;;;;5055176;28;20124;-56
2023/04/23 07:18:31;;;;;;;0.52;0.17;;;;;;;;;;5053867;28;20476;-56
2023/04/23 07:20:57;;;;;;;0.52;0.20;;;;;;;;;;5053738;28;20131;-54
2023/04/23 07:23:23;;;;;;;0.38;0.10;;;;;;;;;;5054212;28;20155;-57
2023/04/23 07:25:49;;;;;;;0.57;0.30;;;;;;;;;;5053956;28;20071;-57
2023/04/23 07:28:15;;;;;;;0.25;0.10;;;;;;;;;;5054272;28;20032;-57
2023/04/23 07:30:41;;;;;;;0.50;0.17;;;;;;;;;;5053654;28;20027;-57
2023/04/23 07:33:07;;;;;;;0.40;0.20;;;;;;;;;;5053524;28;20033;-57
2023/04/23 07:35:33;;;;;;;0.25;0.10;;;;;;;;;;5053507;28;20156;-57
2023/04/23 07:37:59;;;;;;;0.32;0.15;;;;;;;;;;5053568;28;20116;-58
2023/04/23 07:40:25;;;;;;;0.70;0.20;;;;;;;;;;5054013;28;20032;-58
2023/04/23 07:42:51;;;;;;;0.20;0.10;;;;;;;;;;5053467;28;20091;-58
2023/04/23 07:45:18;;;;;;;0.47;0.20;;;;;;;;;;5053391;28;20104;-58
2023/04/23 07:47:45;;;;;;;0.50;0.20;;;;;;;;;;5053474;28;20055;-58
2023/04/23 07:50:11;;;;;;;0.10;0.10;;;;;;;;;;5054255;28;20035;-58
2023/04/23 07:52:37;;;;;;;0.35;0.13;;;;;;;;;;5054031;28;20029;-58
2023/04/23 07:55:03;;;;;;;0.55;0.28;;;;;;;;;;5053503;28;20090;-58
2023/04/23 07:57:29;;;;;;;1.05;0.45;;;;;;;;;;5053427;28;20463;-58
2023/04/23 07:59:55;;;;;;;0.82;0.45;;;;;;;;;;5053668;28;20031;-58
2023/04/23 08:02:24;;;;;;;0.47;0.28;;;;;;;;;;5053218;28;20147;-60
2023/04/23 08:04:50;;;;;;;0.40;0.17;;;;;;;;;;5053241;28;20083;-58
2023/04/23 08:07:16;;;;;;;0.45;0.20;;;;;;;;;;5053360;28;20029;-58
2023/04/23 08:09:42;;;;;;;0.43;0.17;;;;;;;;;;5053853;28;20028;-58
2023/04/23 08:12:08;;;;;;;0.60;0.30;;;;;;;;;;5053633;28;20360;-58
2023/04/23 08:14:34;;;;;;;0.50;0.20;;;;;;;;;;5053392;28;20045;-58
2023/04/23 08:17:00;;;;;;;0.32;0.15;;;;;;;;;;5053449;28;20024;-58
2023/04/23 08:19:30;;;;;;;0.57;0.20;;;;;;;;;;5053564;28;20100;-58
2023/04/23 08:21:56;;;;;;;0.23;0.13;;;;;;;;;;5055832;28;20033;-58
2023/04/23 08:24:22;;;;;;;0.43;0.13;;;;;;;;;;5056976;28;20079;-58
2023/04/23 08:26:48;;;;;;;0.40;0.20;;;;;;;;;;5057652;28;20025;-58
2023/04/23 08:29:14;;;;;;;0.50;0.20;;;;;;;;;;5057008;28;20029;-58
2023/04/23 08:31:40;;;;;;;0.60;0.30;;;;;;;;;;5056861;28;20071;-58
2023/04/23 08:34:06;;;;;;;0.73;0.30;;;;;;;;;;5057393;28;20029;-58
2023/04/23 08:36:32;;;;;;;0.60;0.30;;;;;;;;;;5057415;28;20036;-58
2023/04/23 08:38:59;;;;;;;0.63;0.20;;;;;;;;;;5057308;28;20453;-58
2023/04/23 08:41:26;;;;;;;0.75;0.28;;;;;;;;;;5056631;28;20375;-58
2023/04/23 08:44:02;;;;;;;1.05;0.30;;;;;;;;;;5056825;28;20032;-58
2023/04/23 08:46:31;;;;;;;0.40;0.20;;;;;;;;;;5056412;28;20017;-59
2023/04/23 08:48:58;;;;;;;0.40;0.10;;;;;;;;;;5057077;28;20032;-59
2023/04/23 08:51:25;;;;;;;0.55;0.20;;;;;;;;;;5056714;28;20367;-59
2023/04/23 08:53:55;;;;;;;0.52;0.20;;;;;;;;;;5056406;28;20048;-59
2023/04/23 08:56:22;;;;;;;0.32;0.22;;;;;;;;;;5056801;28;20021;-59
2023/04/23 08:58:49;;;;;;;0.47;0.17;;;;;;;;;;5056001;28;20372;-59
2023/04/23 09:01:16;;;;;;;0.50;0.20;;;;;;;;;;5056146;28;20030;-59
2023/04/23 09:03:42;;;;;;;0.77;0.43;;;;;;;;;;5056469;28;20037;-60
2023/04/23 09:06:08;;;;;;;0.75;0.20;;;;;;;;;;5056735;28;20028;-59
2023/04/23 09:08:34;;;;;;;0.35;0.10;;;;;;;;;;5056245;28;20100;-59
2023/04/23 09:11:01;;;;;;;0.35;0.17;;;;;;;;;;5055840;28;20071;-59
2023/04/23 09:13:29;;;;;;;1.15;0.38;;;;;;;;;;5056095;28;20025;-59
2023/04/23 09:15:55;;;;;;;0.43;0.15;;;;;;;;;;5056632;28;20132;-59
2023/04/23 09:18:21;;;;;;;0.38;0.17;;;;;;;;;;5056252;28;20064;-59
2023/04/23 09:20:47;;;;;;;0.10;0.10;;;;;;;;;;5056099;28;20021;-59
2023/04/23 09:23:15;;;;;;;0.20;0.10;;;;;;;;;;5056144;28;20063;-59
2023/04/23 09:25:41;;;;;;;0.40;0.17;;;;;;;;;;5056372;28;20017;-59
2023/04/23 09:28:10;;;;;;;0.65;0.30;;;;;;;;;;5055876;28;20090;-59
2023/04/23 09:30:42;;;;;;;0.43;0.20;;;;;;;;;;5055607;28;20021;-59
2023/04/23 09:33:11;;;;;;;0.80;0.32;;;;;;;;;;5055639;28;20025;-59
2023/04/23 09:35:37;;;;;;;0.60;0.20;;;;;;;;;;5055690;28;20025;-59
2023/04/23 09:38:06;;;;;;;0.30;0.20;;;;;;;;;;5055261;28;20506;-58
2023/04/23 09:40:32;;;;;;;0.00;0.00;;;;;;;;;;5056097;28;20025;-59
2023/04/23 09:42:58;;;;;;;0.60;0.30;;;;;;;;;;5055470;28;20112;-59
2023/04/23 09:45:24;;;;;;;0.68;0.40;;;;;;;;;;5055620;28;20072;-59
2023/04/23 09:47:52;;;;;;;0.20;0.15;;;;;;;;;;5055666;28;20052;-59
2023/04/23 09:50:30;;;;;;;0.13;0.08;;;;;;;;;;5055258;28;20029;-59
2023/04/23 09:52:56;;;;;;;0.70;0.30;;;;;;;;;;5055874;28;20021;-59
2023/04/23 09:55:29;;;;;;;0.50;0.22;;;;;;;;;;5056114;28;20021;-59
2023/04/23 09:57:56;;;;;;;1.02;0.30;;;;;;;;;;5055208;28;20053;-59
2023/04/23 10:00:24;;;;;;;0.75;0.25;;;;;;;;;;5055130;28;20023;-59
2023/04/23 10:02:51;;;;;;;0.65;0.30;;;;;;;;;;5054997;28;20029;-60
2023/04/23 10:05:21;;;;;;;0.43;0.20;;;;;;;;;;5055545;28;20094;-59
2023/04/23 10:07:50;;;;;;;0.70;0.30;;;;;;;;;;5055577;28;20025;-59
2023/04/23 10:10:16;;;;;;;0.28;0.17;;;;;;;;;;5054969;28;20032;-59
2023/04/23 10:12:42;;;;;;;0.28;0.15;;;;;;;;;;5054893;28;20116;-59
2023/04/23 10:15:09;;;;;;;0.40;0.20;;;;;;;;;;5054877;28;20463;-59
2023/04/23 10:17:38;;;;;;;0.95;0.20;;;;;;;;;;5054605;28;20021;-59
2023/04/23 10:20:05;;;;;;;0.63;0.20;;;;;;;;;;5055085;28;20018;-59
2023/04/23 10:22:33;;;;;;;0.50;0.20;;;;;;;;;;5054483;28;20375;-59
2023/04/23 10:25:00;;;;;;;0.55;0.20;;;;;;;;;;5055184;28;20375;-59
2023/04/23 10:27:28;;;;;;;0.55;0.20;;;;;;;;;;5055196;28;20017;-59
2023/04/23 10:29:54;;;;;;;0.30;0.17;;;;;;;;;;5054885;28;20113;-59
2023/04/23 10:32:20;;;;;;;0.43;0.13;;;;;;;;;;5054799;28;20021;-59
2023/04/23 10:34:47;;;;;;;0.20;0.10;;;;;;;;;;5054831;28;20116;-59
2023/04/23 10:37:14;;;;;;;0.40;0.17;;;;;;;;;;5055195;28;20021;-60
2023/04/23 10:39:42;;;;;;;1.23;0.52;;;;;;;;;;5054376;28;20070;-60
2023/04/23 10:42:09;;;;;;;0.60;0.30;;;;;;;;;;5054290;28;20025;-60
2023/04/23 10:44:38;;;;;;;0.68;0.08;;;;;;;;;;5053327;28;20071;-60
2023/04/23 10:47:05;;;;;;;0.25;0.17;;;;;;;;;;5054102;28;20074;-60
2023/04/23 10:49:31;;;;;;;0.50;0.20;;;;;;;;;;5054427;28;20465;-60
2023/04/23 10:52:02;;;;;;;0.45;0.20;;;;;;;;;;5054036;28;20033;-60
2023/04/23 10:54:29;;;;;;;2.72;0.13;;;;;;;;;;5053935;28;20057;-60
2023/04/23 10:57:06;;;;;;;0.90;0.30;;;;;;;;;;5053764;28;20511;-60
2023/04/23 10:59:32;;;;;;;0.35;0.10;;;;;;;;;;5054156;28;20025;-60
2023/04/23 11:02:05;;;;;;;0.32;0.10;;;;;;;;;;5054356;28;20108;-60
2023/04/23 11:04:32;;;;;;;0.35;0.10;;;;;;;;;;5054655;28;20059;-60
2023/04/23 11:07:08;;;;;;;0.30;0.10;;;;;;;;;;5054150;28;20021;-60
2023/04/23 11:09:34;;;;;;;0.17;0.10;;;;;;;;;;5053930;28;20029;-60
2023/04/23 11:12:01;;;;;;;1.27;1.17;;;;;;;;;;5053661;28;20029;-60
2023/04/23 11:14:58;;;;;;;0.95;0.20;;;;;;;;;;5054007;28;20540;-60
2023/04/23 11:17:33;;;;;;;0.35;0.10;;;;;;;;;;5049255;28;20041;-60
2023/04/23 11:20:15;;;;;;;0.20;0.10;;;;;;;;;;5053820;28;20535;-59
2023/04/23 11:22:51;;;;;;;0.50;0.20;;;;;;;;;;5053794;28;20032;-59
2023/04/23 11:25:23;;;;;;;0.35;0.20;;;;;;;;;;5053500;28;20067;-59
2023/04/23 11:27:50;;;;;;;0.22;0.10;;;;;;;;;;5054185;28;20040;-59
2023/04/23 11:30:20;;;;;;;0.30;0.10;;;;;;;;;;5053660;28;20068;-59
2023/04/23 11:32:50;;;;;;;0.47;0.20;;;;;;;;;;5053708;28;20067;-59
2023/04/23 11:35:18;;;;;;;0.30;0.20;;;;;;;;;;5053637;28;20060;-59
2023/04/23 11:37:44;;;;;;;0.25;0.10;;;;;;;;;;5053593;28;20037;-59
2023/04/23 11:40:12;;;;;;;0.45;0.20;;;;;;;;;;5054104;28;20111;-59
2023/04/23 11:42:45;;;;;;;0.43;0.13;;;;;;;;;;5053482;28;20055;-59
2023/04/23 11:45:17;;;;;;;0.20;0.05;;;;;;;;;;5054295;28;20036;-60
2023/04/23 11:47:44;;;;;;;0.73;0.55;;;;;;;;;;5053885;28;20203;-59
2023/04/23 11:50:10;;;;;;;0.50;0.25;;;;;;;;;;5053790;28;20406;-59
2023/04/23 11:52:36;;;;;;;0.20;0.10;;;;;;;;;;5054080;28;20029;-59
2023/04/23 11:55:03;;;;;;;0.40;0.20;;;;;;;;;;5053590;28;20534;-60
2023/04/23 11:57:29;;;;;;;0.32;0.15;;;;;;;;;;5057754;28;20028;-59
2023/04/23 11:59:55;;;;;;;0.35;0.10;;;;;;;;;;5057700;28;20363;-59
2023/04/23 12:02:23;;;;;;;0.77;0.30;;;;;;;;;;5057372;28;20027;-60
2023/04/23 12:04:50;;;;;;;0.55;0.10;;;;;;;;;;5057326;28;20025;-59
2023/04/23 12:07:16;;;;;;;0.47;0.20;;;;;;;;;;5057850;28;20048;-59
2023/04/23 12:09:45;;;;;;;1.38;0.50;;;;;;;;;;5056716;28;20021;-59
2023/04/23 12:12:11;;;;;;;0.70;0.30;;;;;;;;;;5057390;28;20036;-59
2023/04/23 12:14:37;;;;;;;0.55;0.25;;;;;;;;;;5056885;28;20044;-59
2023/04/23 12:17:09;;;;;;;0.43;0.20;;;;;;;;;;5056961;28;20021;-59
2023/04/23 12:19:35;;;;;;;0.40;0.20;;;;;;;;;;5057599;28;20050;-59
2023/04/23 12:22:02;;;;;;;0.47;0.20;;;;;;;;;;5057005;28;20025;-59
2023/04/23 12:24:44;;;;;;;0.30;0.10;;;;;;;;;;5056707;28;20486;-59
2023/04/23 12:27:14;;;;;;;0.47;0.10;;;;;;;;;;5057556;28;20021;-59
2023/04/23 12:29:40;;;;;;;0.10;0.08;;;;;;;;;;5057201;28;20013;-59
2023/04/23 12:32:09;;;;;;;0.52;0.20;;;;;;;;;;5056489;28;20382;-59
2023/04/23 12:34:35;;;;;;;0.70;0.20;;;;;;;;;;5056816;28;20110;-59
2023/04/23 12:37:05;;;;;;;0.35;0.20;;;;;;;;;;5056472;28;20475;-59
2023/04/23 12:39:35;;;;;;;0.35;0.17;;;;;;;;;;5057448;28;20021;-59
2023/04/23 12:42:03;;;;;;;0.93;0.37;;;;;;;;;;5056771;28;20025;-59
2023/04/23 12:44:29;;;;;;;0.68;0.20;;;;;;;;;;5056574;28;20021;-59
2023/04/23 12:46:57;;;;;;;0.82;0.30;;;;;;;;;;5057020;28;20021;-59
2023/04/23 12:49:23;;;;;;;0.82;0.40;;;;;;;;;;5056505;28;20036;-59
2023/04/23 12:51:49;;;;;;;0.75;0.38;;;;;;;;;;5056767;28;20025;-59
2023/04/23 12:54:15;;;;;;;0.85;0.47;;;;;;;;;;5056418;28;20504;-59
2023/04/23 12:56:41;;;;;;;0.70;0.30;;;;;;;;;;5056788;28;20025;-59
2023/04/23 12:59:07;;;;;;;0.63;0.22;;;;;;;;;;5056050;28;20025;-59
2023/04/23 13:01:33;;;;;;;1.05;0.20;;;;;;;;;;5056268;28;20033;-59
2023/04/23 13:03:59;;;;;;;0.50;0.10;;;;;;;;;;5056569;28;20036;-59
2023/04/23 13:06:25;;;;;;;1.15;0.60;;;;;;;;;;5056509;28;20029;-59
2023/04/23 13:08:51;;;;;;;0.73;0.20;;;;;;;;;;5055915;28;20070;-59
2023/04/23 13:11:17;;;;;;;0.47;0.20;;;;;;;;;;5056516;28;20367;-59
2023/04/23 13:13:43;;;;;;;0.40;0.10;;;;;;;;;;5054558;28;20025;-59
2023/04/23 13:16:10;;;;;;;0.43;0.20;;;;;;;;;;5056531;28;20040;-59
2023/04/23 13:18:36;;;;;;;0.52;0.20;;;;;;;;;;5055964;28;20013;-59
2023/04/23 13:21:02;;;;;;;0.30;0.13;;;;;;;;;;5055879;28;20036;-59
2023/04/23 13:23:28;;;;;;;0.32;0.17;;;;;;;;;;5056167;28;20032;-59
2023/04/23 13:25:54;;;;;;;0.50;0.28;;;;;;;;;;5056169;28;20049;-59
2023/04/23 13:28:20;;;;;;;0.80;0.30;;;;;;;;;;5055822;28;20433;-59
2023/04/23 13:30:46;;;;;;;0.80;0.30;;;;;;;;;;5055693;28;20119;-59
2023/04/23 13:33:12;;;;;;;0.57;0.17;;;;;;;;;;5055707;28;20028;-59
2023/04/23 13:35:39;;;;;;;0.30;0.10;;;;;;;;;;5056460;28;20104;-59
2023/04/23 13:38:05;;;;;;;0.30;0.10;;;;;;;;;;5056411;28;20025;-59
2023/04/23 13:40:31;;;;;;;0.55;0.20;;;;;;;;;;5055588;28;20045;-60
2023/04/23 13:42:57;;;;;;;0.63;0.20;;;;;;;;;;5055523;28;20454;-60
2023/04/23 13:45:23;;;;;;;0.60;0.20;;;;;;;;;;5055849;28;20035;-60
2023/04/23 13:47:49;;;;;;;1.00;0.80;;;;;;;;;;5055548;28;20025;-60
2023/04/23 13:50:15;;;;;;;1.13;0.57;;;;;;;;;;5056279;28;20028;-60
2023/04/23 13:52:41;;;;;;;0.57;0.22;;;;;;;;;;5056309;28;20359;-60
2023/04/23 13:55:08;;;;;;;0.50;0.20;;;;;;;;;;5055431;28;20439;-60
2023/04/23 13:57:34;;;;;;;0.32;0.13;;;;;;;;;;5056167;28;20036;-60
2023/04/23 14:00:00;;;;;;;0.30;0.10;;;;;;;;;;5055304;28;20021;-60
2023/04/23 14:02:26;;;;;;;4.40;3.25;;;;;;;;;;5055426;28;20029;-60
2023/04/23 14:04:52;;;;;;;1.65;0.98;;;;;;;;;;5055253;28;20036;-60
2023/04/23 14:07:18;;;;;;;0.80;0.20;;;;;;;;;;5055684;28;20083;-60
2023/04/23 14:09:46;;;;;;;0.95;0.30;;;;;;;;;;5055097;28;20451;-61
2023/04/23 14:12:12;;;;;;;0.25;0.10;;;;;;;;;;5054914;28;20029;-60
2023/04/23 14:14:38;;;;;;;0.98;0.35;;;;;;;;;;5055555;28;20049;-60
2023/04/23 14:17:04;;;;;;;0.73;0.30;;;;;;;;;;5054820;28;20029;-60
2023/04/23 14:19:33;;;;;;;0.90;0.30;;;;;;;;;;5054954;28;20028;-60
2023/04/23 14:21:59;;;;;;;1.42;0.60;;;;;;;;;;5055432;28;20029;-59
2023/04/23 14:24:28;;;;;;;2.10;0.55;;;;;;;;;;5054768;28;20029;-60
2023/04/23 14:26:55;;;;;;;2.95;0.60;;;;;;;;;;5055184;28;20127;-60
2023/04/23 14:29:24;;;;;;;0.82;0.43;;;;;;;;;;5054929;28;20368;-60
2023/04/23 14:31:50;;;;;;;1.30;0.60;;;;;;;;;;5055018;28;20332;-60
2023/04/23 14:34:16;;;;;;;0.70;0.40;;;;;;;;;;5054545;28;20071;-59
2023/04/23 14:36:43;;;;;;;1.17;0.50;;;;;;;;;;5054947;28;20029;-60
2023/04/23 14:39:09;;;;;;;2.63;1.35;;;;;;;;;;5054377;28;20032;-60
2023/04/23 14:41:36;;;;;;;1.88;0.90;;;;;;;;;;5054396;28;20099;-61